CheckWX is a tool to help pilots better visualize weather data.  It is not intended as a substitute for an official pre-flight weather briefing.

07:05:39 UTC

06D METAR
Rolla Municipal Airport
Rolla, North Dakota, USA
Current

11 mins ago

K06D 220655Z AUTO 21006KT 10SM CLR M05/M08 A2979 RMK AO2
Observed
Feb-22 @ 06:55 UTC
Wind
  • 210° at 6 KTS
Visibility
10 SM
Flight Rules
VFR
Cloud Levels
  • Clear skies
Temperature
-5°C / 23°F
Dewpoint
-8°C / 18°F
Humidity
80%
Altimeter
29.79" Hg
Pressure
1008.82 hPa
Previous

51 mins ago

K06D 220615Z AUTO 16006KT 10SM CLR M05/M07 A2981 RMK AO2
Observed
Feb-22 @ 06:15 UTC
Wind
  • 160° at 6 KTS
Visibility
10 SM
Flight Rules
VFR
Cloud Levels
  • Clear skies
Temperature
-5°C / 23°F
Dewpoint
-7°C / 19°F
Humidity
86%
Altimeter
29.81" Hg
Pressure
1009.52 hPa
Previous

1 hour ago

K06D 220555Z AUTO 16004KT 10SM CLR M05/M07 A2981 RMK AO2
Observed
Feb-22 @ 05:55 UTC
Wind
  • 160° at 4 KTS
Visibility
10 SM
Flight Rules
VFR
Cloud Levels
  • Clear skies
Temperature
-5°C / 23°F
Dewpoint
-7°C / 19°F
Humidity
86%
Altimeter
29.81" Hg
Pressure
1009.52 hPa